sensor_id;sensor_type;location;lat;lon;timestamp;temperature;humidity
78522;SHT31;67819;51.972;5.678;2023-04-24T00:00:07;11.3;78.3
78522;SHT31;67819;51.972;5.678;2023-04-24T00:02:39;11.4;78.6
78522;SHT31;67819;51.972;5.678;2023-04-24T00:05:07;11.4;77.9
78522;SHT31;67819;51.972;5.678;2023-04-24T00:07:38;11.4;78.0
78522;SHT31;67819;51.972;5.678;2023-04-24T00:10:08;11.4;77.7
78522;SHT31;67819;51.972;5.678;2023-04-24T00:12:37;11.4;77.6
78522;SHT31;67819;51.972;5.678;2023-04-24T00:15:06;11.4;77.7
78522;SHT31;67819;51.972;5.678;2023-04-24T00:17:35;11.4;77.6
78522;SHT31;67819;51.972;5.678;2023-04-24T00:20:04;11.4;77.2
78522;SHT31;67819;51.972;5.678;2023-04-24T00:22:34;11.4;76.8
78522;SHT31;67819;51.972;5.678;2023-04-24T00:25:02;11.4;76.9
78522;SHT31;67819;51.972;5.678;2023-04-24T00:27:32;11.4;77.2
78522;SHT31;67819;51.972;5.678;2023-04-24T00:30:03;11.4;77.4
78522;SHT31;67819;51.972;5.678;2023-04-24T00:32:32;11.4;77.5
78522;SHT31;67819;51.972;5.678;2023-04-24T00:35:01;11.4;77.5
78522;SHT31;67819;51.972;5.678;2023-04-24T00:37:29;11.4;77.4
78522;SHT31;67819;51.972;5.678;2023-04-24T00:39:58;11.4;77.1
78522;SHT31;67819;51.972;5.678;2023-04-24T00:42:29;11.4;77.4
78522;SHT31;67819;51.972;5.678;2023-04-24T00:44:58;11.4;77.0
78522;SHT31;67819;51.972;5.678;2023-04-24T00:47:28;11.4;77.3
78522;SHT31;67819;51.972;5.678;2023-04-24T00:49:57;11.4;77.8
78522;SHT31;67819;51.972;5.678;2023-04-24T00:52:25;11.4;78.2
78522;SHT31;67819;51.972;5.678;2023-04-24T00:54:54;11.4;78.7
78522;SHT31;67819;51.972;5.678;2023-04-24T00:57:23;11.4;79.0
78522;SHT31;67819;51.972;5.678;2023-04-24T00:59:53;11.4;79.0
78522;SHT31;67819;51.972;5.678;2023-04-24T01:02:22;11.4;79.2
78522;SHT31;67819;51.972;5.678;2023-04-24T01:04:51;11.3;79.3
78522;SHT31;67819;51.972;5.678;2023-04-24T01:07:20;11.3;80.0
78522;SHT31;67819;51.972;5.678;2023-04-24T01:09:50;11.3;78.7
78522;SHT31;67819;51.972;5.678;2023-04-24T01:12:19;11.2;77.8
78522;SHT31;67819;51.972;5.678;2023-04-24T01:14:49;11.2;77.9
78522;SHT31;67819;51.972;5.678;2023-04-24T01:17:17;11.1;78.8
78522;SHT31;67819;51.972;5.678;2023-04-24T01:19:46;11.0;79.6
78522;SHT31;67819;51.972;5.678;2023-04-24T01:22:15;10.9;79.4
78522;SHT31;67819;51.972;5.678;2023-04-24T01:24:44;10.9;79.6
78522;SHT31;67819;51.972;5.678;2023-04-24T01:27:13;10.9;79.9
78522;SHT31;67819;51.972;5.678;2023-04-24T01:29:42;10.8;80.4
78522;SHT31;67819;51.972;5.678;2023-04-24T01:32:11;10.8;80.7
78522;SHT31;67819;51.972;5.678;2023-04-24T01:34:41;10.8;80.8
78522;SHT31;67819;51.972;5.678;2023-04-24T01:37:10;10.8;81.3
78522;SHT31;67819;51.972;5.678;2023-04-24T01:39:39;10.8;81.0
78522;SHT31;67819;51.972;5.678;2023-04-24T01:42:08;10.8;81.4
78522;SHT31;67819;51.972;5.678;2023-04-24T01:44:36;10.8;81.3
78522;SHT31;67819;51.972;5.678;2023-04-24T01:47:05;10.8;81.4
78522;SHT31;67819;51.972;5.678;2023-04-24T01:49:35;10.8;81.6
78522;SHT31;67819;51.972;5.678;2023-04-24T01:52:04;10.8;81.5
78522;SHT31;67819;51.972;5.678;2023-04-24T01:54:34;10.8;81.3
78522;SHT31;67819;51.972;5.678;2023-04-24T01:57:02;10.8;81.0
78522;SHT31;67819;51.972;5.678;2023-04-24T01:59:35;10.9;81.4
78522;SHT31;67819;51.972;5.678;2023-04-24T02:02:04;10.9;81.8
78522;SHT31;67819;51.972;5.678;2023-04-24T02:04:33;10.9;81.8
78522;SHT31;67819;51.972;5.678;2023-04-24T02:07:01;11.0;81.7
78522;SHT31;67819;51.972;5.678;2023-04-24T02:09:30;11.0;81.6
78522;SHT31;67819;51.972;5.678;2023-04-24T02:11:58;11.0;81.1
78522;SHT31;67819;51.972;5.678;2023-04-24T02:14:27;11.1;80.9
78522;SHT31;67819;51.972;5.678;2023-04-24T02:16:55;11.1;80.9
78522;SHT31;67819;51.972;5.678;2023-04-24T02:19:24;11.1;80.9
78522;SHT31;67819;51.972;5.678;2023-04-24T02:21:53;11.1;81.3
78522;SHT31;67819;51.972;5.678;2023-04-24T02:24:22;11.1;81.5
78522;SHT31;67819;51.972;5.678;2023-04-24T02:26:51;11.1;81.2
78522;SHT31;67819;51.972;5.678;2023-04-24T02:29:19;11.1;81.4
78522;SHT31;67819;51.972;5.678;2023-04-24T02:31:50;11.1;81.8
78522;SHT31;67819;51.972;5.678;2023-04-24T02:34:18;11.0;82.0
78522;SHT31;67819;51.972;5.678;2023-04-24T02:36:47;11.0;82.4
78522;SHT31;67819;51.972;5.678;2023-04-24T02:39:16;10.9;82.9
78522;SHT31;67819;51.972;5.678;2023-04-24T02:41:45;10.9;83.2
78522;SHT31;67819;51.972;5.678;2023-04-24T02:44:14;10.9;82.9
78522;SHT31;67819;51.972;5.678;2023-04-24T02:46:45;10.8;83.1
78522;SHT31;67819;51.972;5.678;2023-04-24T02:49:14;10.8;83.1
78522;SHT31;67819;51.972;5.678;2023-04-24T02:51:42;10.8;83.3
78522;SHT31;67819;51.972;5.678;2023-04-24T02:54:13;10.7;83.1
78522;SHT31;67819;51.972;5.678;2023-04-24T02:56:41;10.7;82.7
78522;SHT31;67819;51.972;5.678;2023-04-24T02:59:10;10.7;82.2
78522;SHT31;67819;51.972;5.678;2023-04-24T03:01:38;10.7;82.3
78522;SHT31;67819;51.972;5.678;2023-04-24T03:04:07;10.6;82.7
78522;SHT31;67819;51.972;5.678;2023-04-24T03:06:36;10.6;83.0
78522;SHT31;67819;51.972;5.678;2023-04-24T03:09:07;10.6;82.8
78522;SHT31;67819;51.972;5.678;2023-04-24T03:11:37;10.6;83.1
78522;SHT31;67819;51.972;5.678;2023-04-24T03:14:07;10.6;83.4
78522;SHT31;67819;51.972;5.678;2023-04-24T03:16:35;10.6;83.5
78522;SHT31;67819;51.972;5.678;2023-04-24T03:19:04;10.6;83.8
78522;SHT31;67819;51.972;5.678;2023-04-24T03:21:32;10.6;84.0
78522;SHT31;67819;51.972;5.678;2023-04-24T03:24:04;10.6;84.3
78522;SHT31;67819;51.972;5.678;2023-04-24T03:26:34;10.6;84.3
78522;SHT31;67819;51.972;5.678;2023-04-24T03:29:03;10.6;84.1
78522;SHT31;67819;51.972;5.678;2023-04-24T03:31:31;10.6;83.4
78522;SHT31;67819;51.972;5.678;2023-04-24T03:34:02;10.6;83.0
78522;SHT31;67819;51.972;5.678;2023-04-24T03:36:31;10.6;83.4
78522;SHT31;67819;51.972;5.678;2023-04-24T03:39:01;10.6;83.6
78522;SHT31;67819;51.972;5.678;2023-04-24T03:41:30;10.6;83.4
78522;SHT31;67819;51.972;5.678;2023-04-24T03:43:58;10.6;83.6
78522;SHT31;67819;51.972;5.678;2023-04-24T03:46:27;10.6;83.4
78522;SHT31;67819;51.972;5.678;2023-04-24T03:48:56;10.6;83.6
78522;SHT31;67819;51.972;5.678;2023-04-24T03:51:24;10.6;83.4
78522;SHT31;67819;51.972;5.678;2023-04-24T03:53:54;10.6;83.2
78522;SHT31;67819;51.972;5.678;2023-04-24T03:56:22;10.6;83.0
78522;SHT31;67819;51.972;5.678;2023-04-24T03:58:51;10.6;82.8
78522;SHT31;67819;51.972;5.678;2023-04-24T04:01:19;10.6;82.8
78522;SHT31;67819;51.972;5.678;2023-04-24T04:03:49;10.6;82.6
78522;SHT31;67819;51.972;5.678;2023-04-24T04:06:17;10.6;82.4
78522;SHT31;67819;51.972;5.678;2023-04-24T04:08:48;10.6;82.3
78522;SHT31;67819;51.972;5.678;2023-04-24T04:11:18;10.6;81.8
78522;SHT31;67819;51.972;5.678;2023-04-24T04:13:48;10.6;82.0
78522;SHT31;67819;51.972;5.678;2023-04-24T04:16:17;10.6;81.9
78522;SHT31;67819;51.972;5.678;2023-04-24T04:18:46;10.6;81.7
78522;SHT31;67819;51.972;5.678;2023-04-24T04:21:14;10.6;81.5
78522;SHT31;67819;51.972;5.678;2023-04-24T04:23:45;10.6;81.5
78522;SHT31;67819;51.972;5.678;2023-04-24T04:26:14;10.6;81.5
78522;SHT31;67819;51.972;5.678;2023-04-24T04:28:43;10.5;81.5
78522;SHT31;67819;51.972;5.678;2023-04-24T04:31:14;10.5;81.3
78522;SHT31;67819;51.972;5.678;2023-04-24T04:33:42;10.5;81.5
78522;SHT31;67819;51.972;5.678;2023-04-24T04:36:13;10.5;81.7
78522;SHT31;67819;51.972;5.678;2023-04-24T04:38:43;10.5;81.7
78522;SHT31;67819;51.972;5.678;2023-04-24T04:41:12;10.5;81.6
78522;SHT31;67819;51.972;5.678;2023-04-24T04:43:43;10.4;81.8
78522;SHT31;67819;51.972;5.678;2023-04-24T04:46:12;10.4;81.5
78522;SHT31;67819;51.972;5.678;2023-04-24T04:48:41;10.4;81.7
78522;SHT31;67819;51.972;5.678;2023-04-24T04:51:10;10.4;82.4
78522;SHT31;67819;51.972;5.678;2023-04-24T04:53:39;10.4;82.6
78522;SHT31;67819;51.972;5.678;2023-04-24T04:56:08;10.3;82.7
78522;SHT31;67819;51.972;5.678;2023-04-24T04:58:36;10.3;82.4
78522;SHT31;67819;51.972;5.678;2023-04-24T05:01:05;10.3;82.2
78522;SHT31;67819;51.972;5.678;2023-04-24T05:03:34;10.3;82.3
78522;SHT31;67819;51.972;5.678;2023-04-24T05:06:03;10.3;82.3
78522;SHT31;67819;51.972;5.678;2023-04-24T05:08:32;10.3;82.8
78522;SHT31;67819;51.972;5.678;2023-04-24T05:11:01;10.3;82.6
78522;SHT31;67819;51.972;5.678;2023-04-24T05:13:29;10.3;83.1
78522;SHT31;67819;51.972;5.678;2023-04-24T05:15:58;10.3;82.6
78522;SHT31;67819;51.972;5.678;2023-04-24T05:18:26;10.3;82.6
78522;SHT31;67819;51.972;5.678;2023-04-24T05:20:55;10.3;82.9
78522;SHT31;67819;51.972;5.678;2023-04-24T05:23:25;10.3;83.0
78522;SHT31;67819;51.972;5.678;2023-04-24T05:25:54;10.3;82.9
78522;SHT31;67819;51.972;5.678;2023-04-24T05:28:23;10.3;82.6
78522;SHT31;67819;51.972;5.678;2023-04-24T05:30:54;10.3;82.6
78522;SHT31;67819;51.972;5.678;2023-04-24T05:33:24;10.3;82.8
78522;SHT31;67819;51.972;5.678;2023-04-24T05:35:52;10.3;83.0
78522;SHT31;67819;51.972;5.678;2023-04-24T05:38:21;10.4;82.9
78522;SHT31;67819;51.972;5.678;2023-04-24T05:40:50;10.4;83.4
78522;SHT31;67819;51.972;5.678;2023-04-24T05:43:18;10.4;83.7
78522;SHT31;67819;51.972;5.678;2023-04-24T05:45:47;10.4;83.7
78522;SHT31;67819;51.972;5.678;2023-04-24T05:48:16;10.4;84.1
78522;SHT31;67819;51.972;5.678;2023-04-24T05:50:44;10.5;83.9
78522;SHT31;67819;51.972;5.678;2023-04-24T05:53:14;10.5;83.8
78522;SHT31;67819;51.972;5.678;2023-04-24T05:55:42;10.5;83.1
78522;SHT31;67819;51.972;5.678;2023-04-24T05:58:12;10.6;83.5
78522;SHT31;67819;51.972;5.678;2023-04-24T06:00:43;10.6;82.7
78522;SHT31;67819;51.972;5.678;2023-04-24T06:03:14;10.6;82.8
78522;SHT31;67819;51.972;5.678;2023-04-24T06:05:42;10.7;82.9
78522;SHT31;67819;51.972;5.678;2023-04-24T06:08:11;10.7;82.9
78522;SHT31;67819;51.972;5.678;2023-04-24T06:10:40;10.7;83.0
78522;SHT31;67819;51.972;5.678;2023-04-24T06:13:08;10.7;82.5
78522;SHT31;67819;51.972;5.678;2023-04-24T06:15:37;10.8;83.1
78522;SHT31;67819;51.972;5.678;2023-04-24T06:18:07;10.8;82.7
78522;SHT31;67819;51.972;5.678;2023-04-24T06:20:36;10.8;82.5
78522;SHT31;67819;51.972;5.678;2023-04-24T06:23:05;10.8;83.1
78522;SHT31;67819;51.972;5.678;2023-04-24T06:25:33;10.9;82.4
78522;SHT31;67819;51.972;5.678;2023-04-24T06:28:04;10.9;82.3
78522;SHT31;67819;51.972;5.678;2023-04-24T06:30:33;10.9;82.0
78522;SHT31;67819;51.972;5.678;2023-04-24T06:33:01;10.9;82.2
78522;SHT31;67819;51.972;5.678;2023-04-24T06:35:30;10.9;82.3
78522;SHT31;67819;51.972;5.678;2023-04-24T06:37:59;10.9;81.8
78522;SHT31;67819;51.972;5.678;2023-04-24T06:40:27;10.8;82.3
78522;SHT31;67819;51.972;5.678;2023-04-24T06:42:56;10.8;82.1
78522;SHT31;67819;51.972;5.678;2023-04-24T06:45:26;10.8;81.9
78522;SHT31;67819;51.972;5.678;2023-04-24T06:47:55;10.7;82.4
78522;SHT31;67819;51.972;5.678;2023-04-24T06:50:24;10.6;82.9
78522;SHT31;67819;51.972;5.678;2023-04-24T06:52:53;10.6;83.0
78522;SHT31;67819;51.972;5.678;2023-04-24T06:55:21;10.5;82.3
78522;SHT31;67819;51.972;5.678;2023-04-24T06:57:50;10.5;82.0
78522;SHT31;67819;51.972;5.678;2023-04-24T07:00:18;10.4;83.0
78522;SHT31;67819;51.972;5.678;2023-04-24T07:02:47;10.3;83.4
78522;SHT31;67819;51.972;5.678;2023-04-24T07:05:16;10.3;83.8
78522;SHT31;67819;51.972;5.678;2023-04-24T07:07:46;10.2;84.0
78522;SHT31;67819;51.972;5.678;2023-04-24T07:10:16;10.2;84.2
78522;SHT31;67819;51.972;5.678;2023-04-24T07:12:44;10.1;84.1
78522;SHT31;67819;51.972;5.678;2023-04-24T07:15:13;10.1;84.3
78522;SHT31;67819;51.972;5.678;2023-04-24T07:17:42;10.0;84.3
78522;SHT31;67819;51.972;5.678;2023-04-24T07:20:11;10.0;84.2
78522;SHT31;67819;51.972;5.678;2023-04-24T07:22:41;9.9;84.9
78522;SHT31;67819;51.972;5.678;2023-04-24T07:25:10;9.9;84.9
78522;SHT31;67819;51.972;5.678;2023-04-24T07:27:39;9.9;84.9
78522;SHT31;67819;51.972;5.678;2023-04-24T07:30:08;9.8;85.5
78522;SHT31;67819;51.972;5.678;2023-04-24T07:32:36;9.8;85.4
78522;SHT31;67819;51.972;5.678;2023-04-24T07:35:06;9.8;85.3
78522;SHT31;67819;51.972;5.678;2023-04-24T07:37:36;9.7;85.1
78522;SHT31;67819;51.972;5.678;2023-04-24T07:40:05;9.7;85.1
78522;SHT31;67819;51.972;5.678;2023-04-24T07:42:34;9.7;84.9
78522;SHT31;67819;51.972;5.678;2023-04-24T07:45:03;9.6;85.1
78522;SHT31;67819;51.972;5.678;2023-04-24T07:47:32;9.6;84.8
78522;SHT31;67819;51.972;5.678;2023-04-24T07:50:03;9.5;84.7
78522;SHT31;67819;51.972;5.678;2023-04-24T07:52:32;9.5;85.3
78522;SHT31;67819;51.972;5.678;2023-04-24T07:55:00;9.4;85.5
78522;SHT31;67819;51.972;5.678;2023-04-24T07:57:29;9.4;85.7
78522;SHT31;67819;51.972;5.678;2023-04-24T07:59:57;9.4;85.9
78522;SHT31;67819;51.972;5.678;2023-04-24T08:02:26;9.3;86.3
78522;SHT31;67819;51.972;5.678;2023-04-24T08:04:55;9.3;86.8
78522;SHT31;67819;51.972;5.678;2023-04-24T08:07:24;9.3;87.0
78522;SHT31;67819;51.972;5.678;2023-04-24T08:09:53;9.3;87.0
78522;SHT31;67819;51.972;5.678;2023-04-24T08:12:21;9.3;87.0
78522;SHT31;67819;51.972;5.678;2023-04-24T08:14:50;9.3;87.1
78522;SHT31;67819;51.972;5.678;2023-04-24T08:17:19;9.3;87.0
78522;SHT31;67819;51.972;5.678;2023-04-24T08:19:47;9.3;87.0
78522;SHT31;67819;51.972;5.678;2023-04-24T08:22:17;9.3;87.0
78522;SHT31;67819;51.972;5.678;2023-04-24T08:24:46;9.3;87.1
78522;SHT31;67819;51.972;5.678;2023-04-24T08:27:16;9.3;87.2
78522;SHT31;67819;51.972;5.678;2023-04-24T08:29:45;9.3;87.3
78522;SHT31;67819;51.972;5.678;2023-04-24T08:32:14;9.3;87.4
78522;SHT31;67819;51.972;5.678;2023-04-24T08:34:42;9.3;87.3
78522;SHT31;67819;51.972;5.678;2023-04-24T08:37:11;9.3;87.3
78522;SHT31;67819;51.972;5.678;2023-04-24T08:39:40;9.3;87.3
78522;SHT31;67819;51.972;5.678;2023-04-24T08:42:09;9.4;87.2
78522;SHT31;67819;51.972;5.678;2023-04-24T08:44:40;9.4;86.8
78522;SHT31;67819;51.972;5.678;2023-04-24T08:47:09;9.4;86.8
78522;SHT31;67819;51.972;5.678;2023-04-24T08:49:39;9.4;86.4
78522;SHT31;67819;51.972;5.678;2023-04-24T08:52:09;9.4;86.6
78522;SHT31;67819;51.972;5.678;2023-04-24T08:54:40;9.4;86.2
78522;SHT31;67819;51.972;5.678;2023-04-24T08:57:10;9.3;86.4
78522;SHT31;67819;51.972;5.678;2023-04-24T08:59:42;9.3;86.2
78522;SHT31;67819;51.972;5.678;2023-04-24T09:02:13;9.3;86.8
78522;SHT31;67819;51.972;5.678;2023-04-24T09:04:43;9.3;86.3
78522;SHT31;67819;51.972;5.678;2023-04-24T09:07:14;9.3;86.2
78522;SHT31;67819;51.972;5.678;2023-04-24T09:09:45;9.3;85.8
78522;SHT31;67819;51.972;5.678;2023-04-24T09:12:14;9.3;86.2
78522;SHT31;67819;51.972;5.678;2023-04-24T09:14:42;9.3;85.7
78522;SHT31;67819;51.972;5.678;2023-04-24T09:17:12;9.3;86.3
78522;SHT31;67819;51.972;5.678;2023-04-24T09:19:41;9.3;85.5
78522;SHT31;67819;51.972;5.678;2023-04-24T09:22:11;9.3;85.2
78522;SHT31;67819;51.972;5.678;2023-04-24T09:24:40;9.3;83.9
78522;SHT31;67819;51.972;5.678;2023-04-24T09:27:13;9.3;84.4
78522;SHT31;67819;51.972;5.678;2023-04-24T09:29:55;9.4;84.9
78522;SHT31;67819;51.972;5.678;2023-04-24T09:32:25;9.4;83.9
78522;SHT31;67819;51.972;5.678;2023-04-24T09:35:13;9.4;84.1
78522;SHT31;67819;51.972;5.678;2023-04-24T09:37:43;9.4;82.6
78522;SHT31;67819;51.972;5.678;2023-04-24T09:40:14;9.4;81.9
78522;SHT31;67819;51.972;5.678;2023-04-24T09:42:54;9.4;82.3
78522;SHT31;67819;51.972;5.678;2023-04-24T09:45:27;9.4;81.6
78522;SHT31;67819;51.972;5.678;2023-04-24T09:47:58;9.4;82.1
78522;SHT31;67819;51.972;5.678;2023-04-24T09:50:26;9.4;79.9
78522;SHT31;67819;51.972;5.678;2023-04-24T09:52:59;9.3;80.3
78522;SHT31;67819;51.972;5.678;2023-04-24T09:55:30;9.3;82.2
78522;SHT31;67819;51.972;5.678;2023-04-24T09:58:00;9.4;82.2
78522;SHT31;67819;51.972;5.678;2023-04-24T10:00:33;9.4;81.1
78522;SHT31;67819;51.972;5.678;2023-04-24T10:03:03;9.5;81.8
78522;SHT31;67819;51.972;5.678;2023-04-24T10:05:34;9.6;80.9
78522;SHT31;67819;51.972;5.678;2023-04-24T10:08:05;9.7;80.2
78522;SHT31;67819;51.972;5.678;2023-04-24T10:10:35;9.8;79.7
78522;SHT31;67819;51.972;5.678;2023-04-24T10:13:04;9.9;79.3
78522;SHT31;67819;51.972;5.678;2023-04-24T10:15:36;10.0;79.0
78522;SHT31;67819;51.972;5.678;2023-04-24T10:18:06;10.1;79.4
78522;SHT31;67819;51.972;5.678;2023-04-24T10:20:38;10.2;79.6
78522;SHT31;67819;51.972;5.678;2023-04-24T10:23:07;10.3;76.7
78522;SHT31;67819;51.972;5.678;2023-04-24T10:25:37;10.4;73.6
78522;SHT31;67819;51.972;5.678;2023-04-24T10:28:05;10.5;71.1
78522;SHT31;67819;51.972;5.678;2023-04-24T10:30:35;10.5;70.1
78522;SHT31;67819;51.972;5.678;2023-04-24T10:33:05;10.5;70.5
78522;SHT31;67819;51.972;5.678;2023-04-24T10:35:37;10.5;70.2
78522;SHT31;67819;51.972;5.678;2023-04-24T10:38:11;10.6;70.5
78522;SHT31;67819;51.972;5.678;2023-04-24T10:40:41;10.6;71.4
78522;SHT31;67819;51.972;5.678;2023-04-24T10:43:10;10.6;69.5
78522;SHT31;67819;51.972;5.678;2023-04-24T10:46:03;10.7;68.9
78522;SHT31;67819;51.972;5.678;2023-04-24T10:48:32;10.8;70.0
78522;SHT31;67819;51.972;5.678;2023-04-24T10:51:02;10.8;69.5
78522;SHT31;67819;51.972;5.678;2023-04-24T10:53:34;10.9;67.7
78522;SHT31;67819;51.972;5.678;2023-04-24T10:56:05;10.9;67.0
78522;SHT31;67819;51.972;5.678;2023-04-24T10:58:41;10.9;68.1
78522;SHT31;67819;51.972;5.678;2023-04-24T11:01:27;10.9;67.3
78522;SHT31;67819;51.972;5.678;2023-04-24T11:03:58;10.9;66.9
78522;SHT31;67819;51.972;5.678;2023-04-24T11:06:31;10.9;68.7
78522;SHT31;67819;51.972;5.678;2023-04-24T11:09:04;10.9;66.3
78522;SHT31;67819;51.972;5.678;2023-04-24T11:11:35;11.0;67.1
78522;SHT31;67819;51.972;5.678;2023-04-24T11:14:07;11.1;65.7
78522;SHT31;67819;51.972;5.678;2023-04-24T11:16:43;11.1;65.1
78522;SHT31;67819;51.972;5.678;2023-04-24T11:19:21;11.1;66.3
78522;SHT31;67819;51.972;5.678;2023-04-24T11:21:56;11.1;65.1
78522;SHT31;67819;51.972;5.678;2023-04-24T11:24:28;11.2;66.5
78522;SHT31;67819;51.972;5.678;2023-04-24T11:26:59;11.2;65.9
78522;SHT31;67819;51.972;5.678;2023-04-24T11:29:41;11.2;66.6
78522;SHT31;67819;51.972;5.678;2023-04-24T11:33:11;11.3;66.7
78522;SHT31;67819;51.972;5.678;2023-04-24T11:35:45;11.4;68.1
78522;SHT31;67819;51.972;5.678;2023-04-24T11:38:14;11.5;67.0
78522;SHT31;67819;51.972;5.678;2023-04-24T11:40:42;11.6;64.9
78522;SHT31;67819;51.972;5.678;2023-04-24T11:43:12;11.7;63.8
78522;SHT31;67819;51.972;5.678;2023-04-24T11:45:49;11.8;63.5
78522;SHT31;67819;51.972;5.678;2023-04-24T11:48:20;11.8;63.1
78522;SHT31;67819;51.972;5.678;2023-04-24T11:50:49;11.8;64.6
78522;SHT31;67819;51.972;5.678;2023-04-24T11:53:18;11.7;63.9
78522;SHT31;67819;51.972;5.678;2023-04-24T11:55:47;11.7;64.3
78522;SHT31;67819;51.972;5.678;2023-04-24T11:58:20;11.6;65.9
78522;SHT31;67819;51.972;5.678;2023-04-24T12:00:59;11.6;66.9
78522;SHT31;67819;51.972;5.678;2023-04-24T12:03:28;11.5;67.1
78522;SHT31;67819;51.972;5.678;2023-04-24T12:06:06;11.4;67.3
78522;SHT31;67819;51.972;5.678;2023-04-24T12:08:36;11.2;68.4
78522;SHT31;67819;51.972;5.678;2023-04-24T12:11:06;11.1;69.4
78522;SHT31;67819;51.972;5.678;2023-04-24T12:13:36;11.0;69.9
78522;SHT31;67819;51.972;5.678;2023-04-24T12:16:05;10.9;70.2
78522;SHT31;67819;51.972;5.678;2023-04-24T12:18:33;10.9;69.7
78522;SHT31;67819;51.972;5.678;2023-04-24T12:21:18;10.9;70.1
78522;SHT31;67819;51.972;5.678;2023-04-24T12:23:48;10.9;68.2
78522;SHT31;67819;51.972;5.678;2023-04-24T12:26:20;11.0;67.7
78522;SHT31;67819;51.972;5.678;2023-04-24T12:28:49;11.0;67.6
78522;SHT31;67819;51.972;5.678;2023-04-24T12:31:21;11.1;66.6
78522;SHT31;67819;51.972;5.678;2023-04-24T12:33:51;11.2;66.8
78522;SHT31;67819;51.972;5.678;2023-04-24T12:36:21;11.2;64.7
78522;SHT31;67819;51.972;5.678;2023-04-24T12:38:52;11.3;64.6
78522;SHT31;67819;51.972;5.678;2023-04-24T12:41:21;11.3;63.8
78522;SHT31;67819;51.972;5.678;2023-04-24T12:43:54;11.3;65.2
78522;SHT31;67819;51.972;5.678;2023-04-24T12:46:22;11.3;64.6
78522;SHT31;67819;51.972;5.678;2023-04-24T12:48:51;11.3;64.7
78522;SHT31;67819;51.972;5.678;2023-04-24T12:51:20;11.4;65.6
78522;SHT31;67819;51.972;5.678;2023-04-24T12:53:49;11.4;65.3
78522;SHT31;67819;51.972;5.678;2023-04-24T12:56:17;11.5;64.3
78522;SHT31;67819;51.972;5.678;2023-04-24T12:58:47;11.5;63.5
78522;SHT31;67819;51.972;5.678;2023-04-24T13:01:15;11.5;61.8
78522;SHT31;67819;51.972;5.678;2023-04-24T13:03:44;11.5;61.5
78522;SHT31;67819;51.972;5.678;2023-04-24T13:06:12;11.6;62.2
78522;SHT31;67819;51.972;5.678;2023-04-24T13:08:41;11.6;62.1
78522;SHT31;67819;51.972;5.678;2023-04-24T13:11:10;11.6;62.4
78522;SHT31;67819;51.972;5.678;2023-04-24T13:13:38;11.7;61.4
78522;SHT31;67819;51.972;5.678;2023-04-24T13:16:09;11.7;59.0
78522;SHT31;67819;51.972;5.678;2023-04-24T13:18:37;11.7;59.8
78522;SHT31;67819;51.972;5.678;2023-04-24T13:21:06;11.8;58.8
78522;SHT31;67819;51.972;5.678;2023-04-24T13:23:35;11.8;58.6
78522;SHT31;67819;51.972;5.678;2023-04-24T13:26:04;11.8;58.8
78522;SHT31;67819;51.972;5.678;2023-04-24T13:28:32;11.8;58.5
78522;SHT31;67819;51.972;5.678;2023-04-24T13:31:01;11.8;58.5
78522;SHT31;67819;51.972;5.678;2023-04-24T13:33:29;11.8;59.7
78522;SHT31;67819;51.972;5.678;2023-04-24T13:35:58;11.9;58.6
78522;SHT31;67819;51.972;5.678;2023-04-24T13:38:27;12.0;58.8
78522;SHT31;67819;51.972;5.678;2023-04-24T13:40:55;12.0;57.6
78522;SHT31;67819;51.972;5.678;2023-04-24T13:43:24;12.1;57.0
78522;SHT31;67819;51.972;5.678;2023-04-24T13:45:53;12.2;56.5
78522;SHT31;67819;51.972;5.678;2023-04-24T13:48:21;12.4;55.3
78522;SHT31;67819;51.972;5.678;2023-04-24T13:50:50;12.7;52.4
78522;SHT31;67819;51.972;5.678;2023-04-24T13:53:19;12.9;50.1
78522;SHT31;67819;51.972;5.678;2023-04-24T13:55:47;13.0;50.7
78522;SHT31;67819;51.972;5.678;2023-04-24T13:58:16;13.0;51.0
78522;SHT31;67819;51.972;5.678;2023-04-24T14:00:44;13.1;52.0
78522;SHT31;67819;51.972;5.678;2023-04-24T14:03:13;13.2;51.4
78522;SHT31;67819;51.972;5.678;2023-04-24T14:05:42;13.2;51.8
78522;SHT31;67819;51.972;5.678;2023-04-24T14:08:10;13.2;51.1
78522;SHT31;67819;51.972;5.678;2023-04-24T14:10:39;13.2;50.6
78522;SHT31;67819;51.972;5.678;2023-04-24T14:13:07;13.2;52.4
78522;SHT31;67819;51.972;5.678;2023-04-24T14:15:37;13.1;51.6
78522;SHT31;67819;51.972;5.678;2023-04-24T14:18:05;13.1;51.2
78522;SHT31;67819;51.972;5.678;2023-04-24T14:20:34;13.2;49.9
78522;SHT31;67819;51.972;5.678;2023-04-24T14:23:03;13.2;50.3
78522;SHT31;67819;51.972;5.678;2023-04-24T14:25:32;13.2;48.1
78522;SHT31;67819;51.972;5.678;2023-04-24T14:28:00;13.2;48.7
78522;SHT31;67819;51.972;5.678;2023-04-24T14:30:29;13.2;47.8
78522;SHT31;67819;51.972;5.678;2023-04-24T14:32:57;13.3;48.6
78522;SHT31;67819;51.972;5.678;2023-04-24T14:35:26;13.3;48.6
78522;SHT31;67819;51.972;5.678;2023-04-24T14:37:59;13.3;50.0
78522;SHT31;67819;51.972;5.678;2023-04-24T14:40:28;13.3;49.1
78522;SHT31;67819;51.972;5.678;2023-04-24T14:42:57;13.3;49.4
78522;SHT31;67819;51.972;5.678;2023-04-24T14:45:26;13.3;49.1
78522;SHT31;67819;51.972;5.678;2023-04-24T14:47:57;13.3;48.9
78522;SHT31;67819;51.972;5.678;2023-04-24T14:50:26;13.3;48.0
78522;SHT31;67819;51.972;5.678;2023-04-24T14:52:55;13.3;48.6
78522;SHT31;67819;51.972;5.678;2023-04-24T14:55:25;13.3;48.6
78522;SHT31;67819;51.972;5.678;2023-04-24T14:57:54;13.2;49.1
78522;SHT31;67819;51.972;5.678;2023-04-24T15:00:23;13.2;50.2
78522;SHT31;67819;51.972;5.678;2023-04-24T15:02:52;13.2;50.1
78522;SHT31;67819;51.972;5.678;2023-04-24T15:05:21;13.2;50.9
78522;SHT31;67819;51.972;5.678;2023-04-24T15:07:51;13.2;51.5
78522;SHT31;67819;51.972;5.678;2023-04-24T15:10:19;13.2;50.9
78522;SHT31;67819;51.972;5.678;2023-04-24T15:12:49;13.1;51.5
78522;SHT31;67819;51.972;5.678;2023-04-24T15:15:18;13.1;50.9
78522;SHT31;67819;51.972;5.678;2023-04-24T15:17:47;13.0;51.2
78522;SHT31;67819;51.972;5.678;2023-04-24T15:20:15;12.9;48.8
78522;SHT31;67819;51.972;5.678;2023-04-24T15:22:44;12.9;49.9
78522;SHT31;67819;51.972;5.678;2023-04-24T15:25:13;12.8;50.0
78522;SHT31;67819;51.972;5.678;2023-04-24T15:27:43;12.7;50.5
78522;SHT31;67819;51.972;5.678;2023-04-24T15:30:14;12.6;51.9
78522;SHT31;67819;51.972;5.678;2023-04-24T15:32:43;12.5;53.3
78522;SHT31;67819;51.972;5.678;2023-04-24T15:35:11;12.5;53.7
78522;SHT31;67819;51.972;5.678;2023-04-24T15:37:41;12.5;53.6
78522;SHT31;67819;51.972;5.678;2023-04-24T15:40:11;12.5;53.1
78522;SHT31;67819;51.972;5.678;2023-04-24T15:42:42;12.5;51.7
78522;SHT31;67819;51.972;5.678;2023-04-24T15:45:12;12.4;51.1
78522;SHT31;67819;51.972;5.678;2023-04-24T15:47:41;12.4;51.5
78522;SHT31;67819;51.972;5.678;2023-04-24T15:50:11;12.4;52.1
78522;SHT31;67819;51.972;5.678;2023-04-24T15:52:42;12.5;53.4
78522;SHT31;67819;51.972;5.678;2023-04-24T15:55:11;12.5;52.9
78522;SHT31;67819;51.972;5.678;2023-04-24T15:57:41;12.6;53.1
78522;SHT31;67819;51.972;5.678;2023-04-24T16:00:11;12.6;53.2
78522;SHT31;67819;51.972;5.678;2023-04-24T16:02:39;12.6;54.8
78522;SHT31;67819;51.972;5.678;2023-04-24T16:05:08;12.7;54.8
78522;SHT31;67819;51.972;5.678;2023-04-24T16:07:38;12.7;53.7
78522;SHT31;67819;51.972;5.678;2023-04-24T16:10:08;12.8;53.6
78522;SHT31;67819;51.972;5.678;2023-04-24T16:12:36;12.7;54.2
78522;SHT31;67819;51.972;5.678;2023-04-24T16:15:06;12.7;54.0
78522;SHT31;67819;51.972;5.678;2023-04-24T16:17:34;12.6;55.2
78522;SHT31;67819;51.972;5.678;2023-04-24T16:20:04;12.5;54.4